sensor_id;sensor_type;location;lat;lon;timestamp;P1;P2;P0
63662;PMS5003;49815;51.618;0.336;2022-12-19T00:00:31;7;4;
63662;PMS5003;49815;51.618;0.336;2022-12-19T00:02:56;6;3;
63662;PMS5003;49815;51.618;0.336;2022-12-19T00:05:21;5;5;
63662;PMS5003;49815;51.618;0.336;2022-12-19T00:07:47;6;6;
63662;PMS5003;49815;51.618;0.336;2022-12-19T00:10:13;3;3;
63662;PMS5003;49815;51.618;0.336;2022-12-19T00:12:38;3;3;
63662;PMS5003;49815;51.618;0.336;2022-12-19T00:15:04;3;3;
63662;PMS5003;49815;51.618;0.336;2022-12-19T00:17:29;6;5;
63662;PMS5003;49815;51.618;0.336;2022-12-19T00:19:55;3;3;
63662;PMS5003;49815;51.618;0.336;2022-12-19T00:22:20;7;5;
63662;PMS5003;49815;51.618;0.336;2022-12-19T00:24:46;7;5;
63662;PMS5003;49815;51.618;0.336;2022-12-19T00:27:11;5;4;
63662;PMS5003;49815;51.618;0.336;2022-12-19T00:29:37;5;5;
63662;PMS5003;49815;51.618;0.336;2022-12-19T00:32:02;3;3;
63662;PMS5003;49815;51.618;0.336;2022-12-19T00:34:27;3;3;
63662;PMS5003;49815;51.618;0.336;2022-12-19T00:36:53;5;4;
63662;PMS5003;49815;51.618;0.336;2022-12-19T00:39:19;4;4;
63662;PMS5003;49815;51.618;0.336;2022-12-19T00:41:44;5;3;
63662;PMS5003;49815;51.618;0.336;2022-12-19T00:44:11;4;3;
63662;PMS5003;49815;51.618;0.336;2022-12-19T00:46:35;5;3;
63662;PMS5003;49815;51.618;0.336;2022-12-19T00:49:01;3;3;
63662;PMS5003;49815;51.618;0.336;2022-12-19T00:51:26;3;3;
63662;PMS5003;49815;51.618;0.336;2022-12-19T00:53:52;5;3;
63662;PMS5003;49815;51.618;0.336;2022-12-19T00:56:18;3;3;
63662;PMS5003;49815;51.618;0.336;2022-12-19T00:58:43;2;2;
63662;PMS5003;49815;51.618;0.336;2022-12-19T01:01:08;5;5;
63662;PMS5003;49815;51.618;0.336;2022-12-19T01:03:33;3;3;
63662;PMS5003;49815;51.618;0.336;2022-12-19T01:05:59;3;1;
63662;PMS5003;49815;51.618;0.336;2022-12-19T01:08:24;2;2;
63662;PMS5003;49815;51.618;0.336;2022-12-19T01:10:49;2;2;
63662;PMS5003;49815;51.618;0.336;2022-12-19T01:13:16;2;1;
63662;PMS5003;49815;51.618;0.336;2022-12-19T01:15:40;1;1;
63662;PMS5003;49815;51.618;0.336;2022-12-19T01:18:06;1;1;
63662;PMS5003;49815;51.618;0.336;2022-12-19T01:20:31;1;1;
63662;PMS5003;49815;51.618;0.336;2022-12-19T01:22:57;3;3;
63662;PMS5003;49815;51.618;0.336;2022-12-19T01:25:22;0;0;
63662;PMS5003;49815;51.618;0.336;2022-12-19T01:27:48;1;1;
63662;PMS5003;49815;51.618;0.336;2022-12-19T01:30:13;3;1;
63662;PMS5003;49815;51.618;0.336;2022-12-19T01:32:39;2;1;
63662;PMS5003;49815;51.618;0.336;2022-12-19T01:35:05;1;1;
63662;PMS5003;49815;51.618;0.336;2022-12-19T01:37:29;1;1;
63662;PMS5003;49815;51.618;0.336;2022-12-19T01:39:55;1;1;
63662;PMS5003;49815;51.618;0.336;2022-12-19T01:42:21;3;1;
63662;PMS5003;49815;51.618;0.336;2022-12-19T01:47:12;2;2;
63662;PMS5003;49815;51.618;0.336;2022-12-19T01:49:37;1;1;
63662;PMS5003;49815;51.618;0.336;2022-12-19T01:52:03;3;3;
63662;PMS5003;49815;51.618;0.336;2022-12-19T01:54:28;4;1;
63662;PMS5003;49815;51.618;0.336;2022-12-19T01:56:55;2;2;
63662;PMS5003;49815;51.618;0.336;2022-12-19T01:59:21;2;2;
63662;PMS5003;49815;51.618;0.336;2022-12-19T02:01:44;2;2;
63662;PMS5003;49815;51.618;0.336;2022-12-19T02:04:10;1;1;
63662;PMS5003;49815;51.618;0.336;2022-12-19T02:06:35;2;2;
63662;PMS5003;49815;51.618;0.336;2022-12-19T02:09:00;4;2;
63662;PMS5003;49815;51.618;0.336;2022-12-19T02:11:26;2;2;
63662;PMS5003;49815;51.618;0.336;2022-12-19T02:13:51;3;2;
63662;PMS5003;49815;51.618;0.336;2022-12-19T02:16:20;2;2;
63662;PMS5003;49815;51.618;0.336;2022-12-19T02:18:44;3;3;
63662;PMS5003;49815;51.618;0.336;2022-12-19T02:21:12;3;3;
63662;PMS5003;49815;51.618;0.336;2022-12-19T02:23:43;4;3;
63662;PMS5003;49815;51.618;0.336;2022-12-19T02:26:01;10;3;
63662;PMS5003;49815;51.618;0.336;2022-12-19T02:28:30;5;4;
63662;PMS5003;49815;51.618;0.336;2022-12-19T02:30:52;4;4;
63662;PMS5003;49815;51.618;0.336;2022-12-19T02:33:16;3;3;
63662;PMS5003;49815;51.618;0.336;2022-12-19T02:35:41;3;3;
63662;PMS5003;49815;51.618;0.336;2022-12-19T02:38:09;6;3;
63662;PMS5003;49815;51.618;0.336;2022-12-19T02:40:32;3;3;
63662;PMS5003;49815;51.618;0.336;2022-12-19T02:42:57;4;3;
63662;PMS5003;49815;51.618;0.336;2022-12-19T02:45:22;2;2;
63662;PMS5003;49815;51.618;0.336;2022-12-19T02:47:47;3;3;
63662;PMS5003;49815;51.618;0.336;2022-12-19T02:50:12;5;3;
63662;PMS5003;49815;51.618;0.336;2022-12-19T02:52:44;3;3;
63662;PMS5003;49815;51.618;0.336;2022-12-19T02:55:05;2;2;
63662;PMS5003;49815;51.618;0.336;2022-12-19T02:57:29;3;3;
63662;PMS5003;49815;51.618;0.336;2022-12-19T02:59:57;3;1;
63662;PMS5003;49815;51.618;0.336;2022-12-19T03:02:21;2;2;
63662;PMS5003;49815;51.618;0.336;2022-12-19T03:04:47;3;3;
63662;PMS5003;49815;51.618;0.336;2022-12-19T03:07:12;6;3;
63662;PMS5003;49815;51.618;0.336;2022-12-19T03:09:37;2;2;
63662;PMS5003;49815;51.618;0.336;2022-12-19T03:12:02;3;3;
63662;PMS5003;49815;51.618;0.336;2022-12-19T03:14:27;3;3;
63662;PMS5003;49815;51.618;0.336;2022-12-19T03:16:52;3;2;
63662;PMS5003;49815;51.618;0.336;2022-12-19T03:19:18;6;5;
63662;PMS5003;49815;51.618;0.336;2022-12-19T03:21:44;4;4;
63662;PMS5003;49815;51.618;0.336;2022-12-19T03:24:08;4;4;
63662;PMS5003;49815;51.618;0.336;2022-12-19T03:26:35;4;4;
63662;PMS5003;49815;51.618;0.336;2022-12-19T03:29:00;3;3;
63662;PMS5003;49815;51.618;0.336;2022-12-19T03:31:25;3;3;
63662;PMS5003;49815;51.618;0.336;2022-12-19T03:33:51;3;3;
63662;PMS5003;49815;51.618;0.336;2022-12-19T03:36:17;4;2;
63662;PMS5003;49815;51.618;0.336;2022-12-19T03:38:42;3;2;
63662;PMS5003;49815;51.618;0.336;2022-12-19T03:41:06;5;3;
63662;PMS5003;49815;51.618;0.336;2022-12-19T03:43:31;5;4;
63662;PMS5003;49815;51.618;0.336;2022-12-19T03:45:59;6;3;
63662;PMS5003;49815;51.618;0.336;2022-12-19T03:48:24;3;3;
63662;PMS5003;49815;51.618;0.336;2022-12-19T03:50:51;4;4;
63662;PMS5003;49815;51.618;0.336;2022-12-19T03:53:19;6;4;
63662;PMS5003;49815;51.618;0.336;2022-12-19T03:55:40;4;4;
63662;PMS5003;49815;51.618;0.336;2022-12-19T03:58:05;3;3;
63662;PMS5003;49815;51.618;0.336;2022-12-19T04:00:29;5;5;
63662;PMS5003;49815;51.618;0.336;2022-12-19T04:02:55;5;5;
63662;PMS5003;49815;51.618;0.336;2022-12-19T04:05:20;2;2;
63662;PMS5003;49815;51.618;0.336;2022-12-19T04:07:46;11;5;
63662;PMS5003;49815;51.618;0.336;2022-12-19T04:10:13;7;3;
63662;PMS5003;49815;51.618;0.336;2022-12-19T04:12:37;4;3;
63662;PMS5003;49815;51.618;0.336;2022-12-19T04:15:02;4;4;
63662;PMS5003;49815;51.618;0.336;2022-12-19T04:17:29;5;3;
63662;PMS5003;49815;51.618;0.336;2022-12-19T04:19:54;5;5;
63662;PMS5003;49815;51.618;0.336;2022-12-19T04:22:20;6;6;
63662;PMS5003;49815;51.618;0.336;2022-12-19T04:24:43;8;7;
63662;PMS5003;49815;51.618;0.336;2022-12-19T04:27:09;9;6;
63662;PMS5003;49815;51.618;0.336;2022-12-19T04:29:35;6;4;
63662;PMS5003;49815;51.618;0.336;2022-12-19T04:32:00;5;5;
63662;PMS5003;49815;51.618;0.336;2022-12-19T04:34:25;7;6;
63662;PMS5003;49815;51.618;0.336;2022-12-19T04:36:50;5;5;
63662;PMS5003;49815;51.618;0.336;2022-12-19T04:39:16;5;3;
63662;PMS5003;49815;51.618;0.336;2022-12-19T04:41:41;6;4;
63662;PMS5003;49815;51.618;0.336;2022-12-19T04:44:07;7;5;
63662;PMS5003;49815;51.618;0.336;2022-12-19T04:46:32;7;7;
63662;PMS5003;49815;51.618;0.336;2022-12-19T04:48:57;4;4;
63662;PMS5003;49815;51.618;0.336;2022-12-19T04:51:23;4;4;
63662;PMS5003;49815;51.618;0.336;2022-12-19T04:53:49;6;5;
63662;PMS5003;49815;51.618;0.336;2022-12-19T04:56:13;6;3;
63662;PMS5003;49815;51.618;0.336;2022-12-19T04:58:39;7;5;
63662;PMS5003;49815;51.618;0.336;2022-12-19T05:01:05;4;4;
63662;PMS5003;49815;51.618;0.336;2022-12-19T05:03:29;6;5;
63662;PMS5003;49815;51.618;0.336;2022-12-19T05:08:20;5;5;
63662;PMS5003;49815;51.618;0.336;2022-12-19T05:10:46;7;4;
63662;PMS5003;49815;51.618;0.336;2022-12-19T05:13:11;6;6;
63662;PMS5003;49815;51.618;0.336;2022-12-19T05:15:36;4;3;
63662;PMS5003;49815;51.618;0.336;2022-12-19T05:18:02;4;4;
63662;PMS5003;49815;51.618;0.336;2022-12-19T05:20:27;4;2;
63662;PMS5003;49815;51.618;0.336;2022-12-19T05:22:53;4;4;
63662;PMS5003;49815;51.618;0.336;2022-12-19T05:25:18;6;4;
63662;PMS5003;49815;51.618;0.336;2022-12-19T05:27:43;4;2;
63662;PMS5003;49815;51.618;0.336;2022-12-19T05:30:10;2;2;
63662;PMS5003;49815;51.618;0.336;2022-12-19T05:32:34;5;5;
63662;PMS5003;49815;51.618;0.336;2022-12-19T05:35:00;3;3;
63662;PMS5003;49815;51.618;0.336;2022-12-19T05:37:25;5;4;
63662;PMS5003;49815;51.618;0.336;2022-12-19T05:39:50;2;2;
63662;PMS5003;49815;51.618;0.336;2022-12-19T05:42:16;2;2;
63662;PMS5003;49815;51.618;0.336;2022-12-19T05:44:41;1;1;
63662;PMS5003;49815;51.618;0.336;2022-12-19T05:47:07;4;2;
63662;PMS5003;49815;51.618;0.336;2022-12-19T05:49:32;2;2;
63662;PMS5003;49815;51.618;0.336;2022-12-19T05:51:57;2;2;
63662;PMS5003;49815;51.618;0.336;2022-12-19T05:54:23;4;4;
63662;PMS5003;49815;51.618;0.336;2022-12-19T05:56:49;2;1;
63662;PMS5003;49815;51.618;0.336;2022-12-19T05:59:14;5;3;
63662;PMS5003;49815;51.618;0.336;2022-12-19T06:01:39;3;2;
63662;PMS5003;49815;51.618;0.336;2022-12-19T06:04:04;2;1;
63662;PMS5003;49815;51.618;0.336;2022-12-19T06:06:30;1;1;
63662;PMS5003;49815;51.618;0.336;2022-12-19T06:08:56;3;2;
63662;PMS5003;49815;51.618;0.336;2022-12-19T06:11:20;3;3;
63662;PMS5003;49815;51.618;0.336;2022-12-19T06:13:46;1;1;
63662;PMS5003;49815;51.618;0.336;2022-12-19T06:16:12;2;2;
63662;PMS5003;49815;51.618;0.336;2022-12-19T06:18:37;3;2;
63662;PMS5003;49815;51.618;0.336;2022-12-19T06:21:03;2;2;
63662;PMS5003;49815;51.618;0.336;2022-12-19T06:23:28;3;2;
63662;PMS5003;49815;51.618;0.336;2022-12-19T06:25:54;2;2;
63662;PMS5003;49815;51.618;0.336;2022-12-19T06:28:18;2;2;
63662;PMS5003;49815;51.618;0.336;2022-12-19T06:30:44;5;3;
63662;PMS5003;49815;51.618;0.336;2022-12-19T06:33:09;2;2;
63662;PMS5003;49815;51.618;0.336;2022-12-19T06:35:35;2;2;
63662;PMS5003;49815;51.618;0.336;2022-12-19T06:38:00;2;2;
63662;PMS5003;49815;51.618;0.336;2022-12-19T06:40:25;3;3;
63662;PMS5003;49815;51.618;0.336;2022-12-19T06:42:51;4;2;
63662;PMS5003;49815;51.618;0.336;2022-12-19T06:45:16;2;2;
63662;PMS5003;49815;51.618;0.336;2022-12-19T06:47:41;3;2;
63662;PMS5003;49815;51.618;0.336;2022-12-19T06:50:07;1;1;
63662;PMS5003;49815;51.618;0.336;2022-12-19T06:52:32;2;2;
63662;PMS5003;49815;51.618;0.336;2022-12-19T06:54:57;3;3;
63662;PMS5003;49815;51.618;0.336;2022-12-19T06:57:23;2;2;
63662;PMS5003;49815;51.618;0.336;2022-12-19T06:59:48;4;2;
63662;PMS5003;49815;51.618;0.336;2022-12-19T07:02:17;3;3;
63662;PMS5003;49815;51.618;0.336;2022-12-19T07:04:39;1;1;
63662;PMS5003;49815;51.618;0.336;2022-12-19T07:07:05;4;2;
63662;PMS5003;49815;51.618;0.336;2022-12-19T07:09:30;1;1;
63662;PMS5003;49815;51.618;0.336;2022-12-19T07:11:55;2;2;
63662;PMS5003;49815;51.618;0.336;2022-12-19T07:14:21;2;2;
63662;PMS5003;49815;51.618;0.336;2022-12-19T07:16:46;2;2;
63662;PMS5003;49815;51.618;0.336;2022-12-19T07:19:11;3;3;
63662;PMS5003;49815;51.618;0.336;2022-12-19T07:21:37;2;2;
63662;PMS5003;49815;51.618;0.336;2022-12-19T07:24:02;5;4;
63662;PMS5003;49815;51.618;0.336;2022-12-19T07:26:27;2;2;
63662;PMS5003;49815;51.618;0.336;2022-12-19T07:28:53;7;4;
63662;PMS5003;49815;51.618;0.336;2022-12-19T07:31:18;3;3;
63662;PMS5003;49815;51.618;0.336;2022-12-19T07:33:44;2;2;
63662;PMS5003;49815;51.618;0.336;2022-12-19T07:36:09;4;3;
63662;PMS5003;49815;51.618;0.336;2022-12-19T07:38:35;6;3;
63662;PMS5003;49815;51.618;0.336;2022-12-19T07:41:00;2;2;
63662;PMS5003;49815;51.618;0.336;2022-12-19T07:43:25;3;3;
63662;PMS5003;49815;51.618;0.336;2022-12-19T07:45:52;4;3;
63662;PMS5003;49815;51.618;0.336;2022-12-19T07:48:16;3;3;
63662;PMS5003;49815;51.618;0.336;2022-12-19T07:50:41;3;2;
63662;PMS5003;49815;51.618;0.336;2022-12-19T07:53:07;4;2;
63662;PMS5003;49815;51.618;0.336;2022-12-19T07:55:32;3;2;
63662;PMS5003;49815;51.618;0.336;2022-12-19T07:57:58;3;3;
63662;PMS5003;49815;51.618;0.336;2022-12-19T08:00:23;3;3;
63662;PMS5003;49815;51.618;0.336;2022-12-19T08:02:48;3;3;
63662;PMS5003;49815;51.618;0.336;2022-12-19T08:05:14;2;2;
63662;PMS5003;49815;51.618;0.336;2022-12-19T08:07:39;2;2;
63662;PMS5003;49815;51.618;0.336;2022-12-19T08:10:05;4;2;
63662;PMS5003;49815;51.618;0.336;2022-12-19T08:12:31;3;3;
63662;PMS5003;49815;51.618;0.336;2022-12-19T08:14:55;2;2;
63662;PMS5003;49815;51.618;0.336;2022-12-19T08:17:20;4;3;
63662;PMS5003;49815;51.618;0.336;2022-12-19T08:19:46;1;1;
63662;PMS5003;49815;51.618;0.336;2022-12-19T08:22:11;2;2;
63662;PMS5003;49815;51.618;0.336;2022-12-19T08:24:37;4;2;
63662;PMS5003;49815;51.618;0.336;2022-12-19T08:27:02;2;2;
63662;PMS5003;49815;51.618;0.336;2022-12-19T08:29:28;2;2;
63662;PMS5003;49815;51.618;0.336;2022-12-19T08:31:53;9;6;
63662;PMS5003;49815;51.618;0.336;2022-12-19T08:34:18;6;3;
63662;PMS5003;49815;51.618;0.336;2022-12-19T08:36:44;4;4;
63662;PMS5003;49815;51.618;0.336;2022-12-19T08:39:09;4;2;
63662;PMS5003;49815;51.618;0.336;2022-12-19T08:41:35;4;4;
63662;PMS5003;49815;51.618;0.336;2022-12-19T08:44:00;4;4;
63662;PMS5003;49815;51.618;0.336;2022-12-19T08:46:25;3;3;
63662;PMS5003;49815;51.618;0.336;2022-12-19T08:48:50;4;4;
63662;PMS5003;49815;51.618;0.336;2022-12-19T08:51:16;4;4;
63662;PMS5003;49815;51.618;0.336;2022-12-19T08:53:42;7;5;
63662;PMS5003;49815;51.618;0.336;2022-12-19T08:56:07;5;4;
63662;PMS5003;49815;51.618;0.336;2022-12-19T08:58:32;5;4;
63662;PMS5003;49815;51.618;0.336;2022-12-19T09:00:57;3;3;
63662;PMS5003;49815;51.618;0.336;2022-12-19T09:03:22;5;5;
63662;PMS5003;49815;51.618;0.336;2022-12-19T09:08:13;5;5;
63662;PMS5003;49815;51.618;0.336;2022-12-19T09:10:38;6;6;
63662;PMS5003;49815;51.618;0.336;2022-12-19T09:13:04;3;3;
63662;PMS5003;49815;51.618;0.336;2022-12-19T09:15:29;5;4;
63662;PMS5003;49815;51.618;0.336;2022-12-19T09:17:55;3;2;
63662;PMS5003;49815;51.618;0.336;2022-12-19T09:20:20;2;2;
63662;PMS5003;49815;51.618;0.336;2022-12-19T09:22:45;6;4;
63662;PMS5003;49815;51.618;0.336;2022-12-19T09:25:11;3;3;
63662;PMS5003;49815;51.618;0.336;2022-12-19T09:27:36;4;4;
63662;PMS5003;49815;51.618;0.336;2022-12-19T09:30:02;5;5;
63662;PMS5003;49815;51.618;0.336;2022-12-19T09:32:27;6;4;
63662;PMS5003;49815;51.618;0.336;2022-12-19T09:34:52;4;4;
63662;PMS5003;49815;51.618;0.336;2022-12-19T09:37:18;5;4;
63662;PMS5003;49815;51.618;0.336;2022-12-19T09:39:43;4;4;
63662;PMS5003;49815;51.618;0.336;2022-12-19T09:42:12;5;2;
63662;PMS5003;49815;51.618;0.336;2022-12-19T09:44:38;6;3;
63662;PMS5003;49815;51.618;0.336;2022-12-19T09:46:59;3;3;
63662;PMS5003;49815;51.618;0.336;2022-12-19T09:49:25;3;3;
63662;PMS5003;49815;51.618;0.336;2022-12-19T09:51:52;2;2;
63662;PMS5003;49815;51.618;0.336;2022-12-19T09:54:16;3;3;
63662;PMS5003;49815;51.618;0.336;2022-12-19T09:56:41;7;3;
63662;PMS5003;49815;51.618;0.336;2022-12-19T09:59:12;3;3;
63662;PMS5003;49815;51.618;0.336;2022-12-19T10:01:32;2;2;
63662;PMS5003;49815;51.618;0.336;2022-12-19T10:03:58;6;4;
63662;PMS5003;49815;51.618;0.336;2022-12-19T10:06:22;3;3;
63662;PMS5003;49815;51.618;0.336;2022-12-19T10:08:48;3;3;
63662;PMS5003;49815;51.618;0.336;2022-12-19T10:11:18;2;2;
63662;PMS5003;49815;51.618;0.336;2022-12-19T10:13:43;3;3;
63662;PMS5003;49815;51.618;0.336;2022-12-19T10:16:05;2;2;
63662;PMS5003;49815;51.618;0.336;2022-12-19T10:18:32;2;2;
63662;PMS5003;49815;51.618;0.336;2022-12-19T10:20:56;3;2;
63662;PMS5003;49815;51.618;0.336;2022-12-19T10:23:26;3;3;
63662;PMS5003;49815;51.618;0.336;2022-12-19T10:25:49;3;3;
63662;PMS5003;49815;51.618;0.336;2022-12-19T10:28:15;1;1;
63662;PMS5003;49815;51.618;0.336;2022-12-19T10:30:37;3;2;
63662;PMS5003;49815;51.618;0.336;2022-12-19T10:33:04;2;2;
63662;PMS5003;49815;51.618;0.336;2022-12-19T10:35:28;2;2;
63662;PMS5003;49815;51.618;0.336;2022-12-19T10:37:54;3;1;
63662;PMS5003;49815;51.618;0.336;2022-12-19T10:40:20;1;1;
63662;PMS5003;49815;51.618;0.336;2022-12-19T10:42:45;1;1;
63662;PMS5003;49815;51.618;0.336;2022-12-19T10:45:10;5;3;
63662;PMS5003;49815;51.618;0.336;2022-12-19T10:47:33;4;2;
63662;PMS5003;49815;51.618;0.336;2022-12-19T10:49:59;3;3;
63662;PMS5003;49815;51.618;0.336;2022-12-19T10:54:50;4;4;
63662;PMS5003;49815;51.618;0.336;2022-12-19T10:57:17;4;3;
63662;PMS5003;49815;51.618;0.336;2022-12-19T10:59:40;5;5;
63662;PMS5003;49815;51.618;0.336;2022-12-19T11:04:32;3;3;
63662;PMS5003;49815;51.618;0.336;2022-12-19T11:07:08;4;4;
63662;PMS5003;49815;51.618;0.336;2022-12-19T11:09:23;3;3;
63662;PMS5003;49815;51.618;0.336;2022-12-19T11:11:48;3;3;
63662;PMS5003;49815;51.618;0.336;2022-12-19T11:14:18;5;4;
63662;PMS5003;49815;51.618;0.336;2022-12-19T11:16:38;4;3;
63662;PMS5003;49815;51.618;0.336;2022-12-19T11:19:03;7;3;
63662;PMS5003;49815;51.618;0.336;2022-12-19T11:21:29;5;3;
63662;PMS5003;49815;51.618;0.336;2022-12-19T11:23:54;4;3;
63662;PMS5003;49815;51.618;0.336;2022-12-19T11:28:44;4;4;
63662;PMS5003;49815;51.618;0.336;2022-12-19T11:31:18;3;3;
63662;PMS5003;49815;51.618;0.336;2022-12-19T11:33:35;6;4;
63662;PMS5003;49815;51.618;0.336;2022-12-19T11:36:01;6;4;
63662;PMS5003;49815;51.618;0.336;2022-12-19T11:38:30;4;2;
63662;PMS5003;49815;51.618;0.336;2022-12-19T11:40:52;6;3;
63662;PMS5003;49815;51.618;0.336;2022-12-19T11:43:18;4;2;
63662;PMS5003;49815;51.618;0.336;2022-12-19T11:45:43;3;3;
63662;PMS5003;49815;51.618;0.336;2022-12-19T11:48:09;2;2;
63662;PMS5003;49815;51.618;0.336;2022-12-19T11:50:34;3;3;
63662;PMS5003;49815;51.618;0.336;2022-12-19T11:53:01;4;2;
63662;PMS5003;49815;51.618;0.336;2022-12-19T11:55:24;4;4;
63662;PMS5003;49815;51.618;0.336;2022-12-19T11:57:48;4;2;
63662;PMS5003;49815;51.618;0.336;2022-12-19T12:00:15;4;3;
63662;PMS5003;49815;51.618;0.336;2022-12-19T12:02:46;4;4;
63662;PMS5003;49815;51.618;0.336;2022-12-19T12:05:07;3;3;
63662;PMS5003;49815;51.618;0.336;2022-12-19T12:07:31;3;3;
63662;PMS5003;49815;51.618;0.336;2022-12-19T12:09:57;3;2;
63662;PMS5003;49815;51.618;0.336;2022-12-19T12:12:23;4;4;
63662;PMS5003;49815;51.618;0.336;2022-12-19T12:14:49;2;2;
63662;PMS5003;49815;51.618;0.336;2022-12-19T12:17:17;4;2;
63662;PMS5003;49815;51.618;0.336;2022-12-19T12:19:42;3;3;
63662;PMS5003;49815;51.618;0.336;2022-12-19T12:22:06;3;3;
63662;PMS5003;49815;51.618;0.336;2022-12-19T12:24:32;3;3;
63662;PMS5003;49815;51.618;0.336;2022-12-19T12:26:54;5;4;
63662;PMS5003;49815;51.618;0.336;2022-12-19T12:29:19;4;3;
63662;PMS5003;49815;51.618;0.336;2022-12-19T12:31:45;8;4;
63662;PMS5003;49815;51.618;0.336;2022-12-19T12:34:14;11;8;
63662;PMS5003;49815;51.618;0.336;2022-12-19T12:36:36;6;3;
63662;PMS5003;49815;51.618;0.336;2022-12-19T12:39:02;7;4;
63662;PMS5003;49815;51.618;0.336;2022-12-19T12:41:26;4;4;
63662;PMS5003;49815;51.618;0.336;2022-12-19T12:43:55;6;6;
63662;PMS5003;49815;51.618;0.336;2022-12-19T12:46:18;3;3;
63662;PMS5003;49815;51.618;0.336;2022-12-19T12:48:41;8;5;
63662;PMS5003;49815;51.618;0.336;2022-12-19T12:51:06;5;5;
63662;PMS5003;49815;51.618;0.336;2022-12-19T12:53:31;4;4;
63662;PMS5003;49815;51.618;0.336;2022-12-19T12:55:58;5;4;
63662;PMS5003;49815;51.618;0.336;2022-12-19T13:03:14;9;5;
63662;PMS5003;49815;51.618;0.336;2022-12-19T13:10:30;5;5;
63662;PMS5003;49815;51.618;0.336;2022-12-19T13:12:57;9;7;
63662;PMS5003;49815;51.618;0.336;2022-12-19T13:15:30;5;5;
63662;PMS5003;49815;51.618;0.336;2022-12-19T13:22:39;8;5;
63662;PMS5003;49815;51.618;0.336;2022-12-19T13:27:32;7;5;
63662;PMS5003;49815;51.618;0.336;2022-12-19T13:29:55;4;4;
63662;PMS5003;49815;51.618;0.336;2022-12-19T13:32:20;6;6;
63662;PMS5003;49815;51.618;0.336;2022-12-19T13:34:52;7;4;
63662;PMS5003;49815;51.618;0.336;2022-12-19T13:39:37;7;5;
63662;PMS5003;49815;51.618;0.336;2022-12-19T13:42:09;11;8;
63662;PMS5003;49815;51.618;0.336;2022-12-19T13:44:27;6;5;
63662;PMS5003;49815;51.618;0.336;2022-12-19T13:46:52;9;6;
63662;PMS5003;49815;51.618;0.336;2022-12-19T13:49:19;11;7;
63662;PMS5003;49815;51.618;0.336;2022-12-19T13:51:45;7;6;
63662;PMS5003;49815;51.618;0.336;2022-12-19T13:54:17;7;7;
63662;PMS5003;49815;51.618;0.336;2022-12-19T13:56:34;6;4;
63662;PMS5003;49815;51.618;0.336;2022-12-19T13:59:00;10;8;
63662;PMS5003;49815;51.618;0.336;2022-12-19T14:01:26;6;5;
63662;PMS5003;49815;51.618;0.336;2022-12-19T14:03:51;6;4;
63662;PMS5003;49815;51.618;0.336;2022-12-19T14:06:17;3;3;
63662;PMS5003;49815;51.618;0.336;2022-12-19T14:08:41;7;4;
63662;PMS5003;49815;51.618;0.336;2022-12-19T14:11:07;7;4;
63662;PMS5003;49815;51.618;0.336;2022-12-19T14:13:32;8;5;
63662;PMS5003;49815;51.618;0.336;2022-12-19T14:15:57;5;5;
63662;PMS5003;49815;51.618;0.336;2022-12-19T14:18:23;5;5;
63662;PMS5003;49815;51.618;0.336;2022-12-19T14:20:48;6;4;
63662;PMS5003;49815;51.618;0.336;2022-12-19T14:23:13;6;4;
63662;PMS5003;49815;51.618;0.336;2022-12-19T14:25:39;6;5;
63662;PMS5003;49815;51.618;0.336;2022-12-19T14:28:04;4;4;
63662;PMS5003;49815;51.618;0.336;2022-12-19T14:30:29;7;5;
63662;PMS5003;49815;51.618;0.336;2022-12-19T14:32:55;8;7;
63662;PMS5003;49815;51.618;0.336;2022-12-19T14:35:21;12;7;
63662;PMS5003;49815;51.618;0.336;2022-12-19T14:37:46;4;3;
63662;PMS5003;49815;51.618;0.336;2022-12-19T14:40:17;5;5;
63662;PMS5003;49815;51.618;0.336;2022-12-19T14:42:36;9;7;
63662;PMS5003;49815;51.618;0.336;2022-12-19T14:47:32;8;8;
63662;PMS5003;49815;51.618;0.336;2022-12-19T14:49:53;8;6;
63662;PMS5003;49815;51.618;0.336;2022-12-19T14:54:44;8;6;
63662;PMS5003;49815;51.618;0.336;2022-12-19T14:57:14;5;5;
63662;PMS5003;49815;51.618;0.336;2022-12-19T14:59:37;6;4;
63662;PMS5003;49815;51.618;0.336;2022-12-19T15:02:02;6;6;
63662;PMS5003;49815;51.618;0.336;2022-12-19T15:04:27;7;6;
63662;PMS5003;49815;51.618;0.336;2022-12-19T15:06:52;5;5;
63662;PMS5003;49815;51.618;0.336;2022-12-19T15:09:17;7;5;
63662;PMS5003;49815;51.618;0.336;2022-12-19T15:11:43;5;4;
63662;PMS5003;49815;51.618;0.336;2022-12-19T15:14:08;7;6;
63662;PMS5003;49815;51.618;0.336;2022-12-19T15:16:33;6;6;
63662;PMS5003;49815;51.618;0.336;2022-12-19T15:18:59;4;4;
63662;PMS5003;49815;51.618;0.336;2022-12-19T15:21:24;6;5;
63662;PMS5003;49815;51.618;0.336;2022-12-19T15:23:49;5;5;
63662;PMS5003;49815;51.618;0.336;2022-12-19T15:26:15;9;6;
63662;PMS5003;49815;51.618;0.336;2022-12-19T15:28:40;6;5;
63662;PMS5003;49815;51.618;0.336;2022-12-19T15:31:08;8;6;
63662;PMS5003;49815;51.618;0.336;2022-12-19T15:33:30;5;4;
63662;PMS5003;49815;51.618;0.336;2022-12-19T15:35:56;8;3;
63662;PMS5003;49815;51.618;0.336;2022-12-19T15:38:21;7;4;
63662;PMS5003;49815;51.618;0.336;2022-12-19T15:40:46;6;4;
63662;PMS5003;49815;51.618;0.336;2022-12-19T15:43:14;6;4;
63662;PMS5003;49815;51.618;0.336;2022-12-19T15:45:37;5;5;
63662;PMS5003;49815;51.618;0.336;2022-12-19T15:48:02;7;5;
63662;PMS5003;49815;51.618;0.336;2022-12-19T15:50:28;6;5;
63662;PMS5003;49815;51.618;0.336;2022-12-19T15:52:54;8;6;
63662;PMS5003;49815;51.618;0.336;2022-12-19T15:55:19;9;8;
63662;PMS5003;49815;51.618;0.336;2022-12-19T15:57:44;4;3;
63662;PMS5003;49815;51.618;0.336;2022-12-19T16:00:14;6;5;
63662;PMS5003;49815;51.618;0.336;2022-12-19T16:02:35;4;4;
63662;PMS5003;49815;51.618;0.336;2022-12-19T16:05:00;5;3;
63662;PMS5003;49815;51.618;0.336;2022-12-19T16:07:25;6;5;
63662;PMS5003;49815;51.618;0.336;2022-12-19T16:09:51;7;4;
63662;PMS5003;49815;51.618;0.336;2022-12-19T16:12:16;7;3;
63662;PMS5003;49815;51.618;0.336;2022-12-19T16:14:41;4;4;
63662;PMS5003;49815;51.618;0.336;2022-12-19T16:17:08;4;4;
63662;PMS5003;49815;51.618;0.336;2022-12-19T16:19:31;5;4;
63662;PMS5003;49815;51.618;0.336;2022-12-19T16:21:57;9;4;
63662;PMS5003;49815;51.618;0.336;2022-12-19T16:24:23;3;3;
63662;PMS5003;49815;51.618;0.336;2022-12-19T16:26:50;6;6;
63662;PMS5003;49815;51.618;0.336;2022-12-19T16:29:15;4;4;
63662;PMS5003;49815;51.618;0.336;2022-12-19T16:31:38;8;8;
63662;PMS5003;49815;51.618;0.336;2022-12-19T16:34:07;7;6;
63662;PMS5003;49815;51.618;0.336;2022-12-19T16:36:29;10;7;
63662;PMS5003;49815;51.618;0.336;2022-12-19T16:38:54;6;6;
63662;PMS5003;49815;51.618;0.336;2022-12-19T16:41:20;7;7;
63662;PMS5003;49815;51.618;0.336;2022-12-19T16:43:45;4;4;
63662;PMS5003;49815;51.618;0.336;2022-12-19T16:46:14;5;5;
63662;PMS5003;49815;51.618;0.336;2022-12-19T16:48:35;7;3;
63662;PMS5003;49815;51.618;0.336;2022-12-19T16:51:00;6;6;
63662;PMS5003;49815;51.618;0.336;2022-12-19T16:53:26;6;6;
63662;PMS5003;49815;51.618;0.336;2022-12-19T16:55:52;13;10;
63662;PMS5003;49815;51.618;0.336;2022-12-19T16:58:18;8;5;
63662;PMS5003;49815;51.618;0.336;2022-12-19T17:00:42;6;5;
63662;PMS5003;49815;51.618;0.336;2022-12-19T17:03:11;7;6;
63662;PMS5003;49815;51.618;0.336;2022-12-19T17:05:33;7;5;
63662;PMS5003;49815;51.618;0.336;2022-12-19T17:07:58;8;7;
63662;PMS5003;49815;51.618;0.336;2022-12-19T17:10:26;6;5;
63662;PMS5003;49815;51.618;0.336;2022-12-19T17:12:49;4;4;
63662;PMS5003;49815;51.618;0.336;2022-12-19T17:15:17;8;6;